createdAt,value
2023-12-11T00:00:33.471Z,5.13
2023-12-11T00:03:00.338Z,7.17
2023-12-11T00:05:28.496Z,8.10
2023-12-11T00:07:55.386Z,7.23
2023-12-11T00:10:22.240Z,5.60
2023-12-11T00:12:49.099Z,9.77
2023-12-11T00:15:15.830Z,3.90
2023-12-11T00:17:42.785Z,7.80
2023-12-11T00:20:10.915Z,5.10
2023-12-11T00:22:38.984Z,4.03
2023-12-11T00:25:06.877Z,5.17
2023-12-11T00:27:34.106Z,5.33
2023-12-11T00:30:01.158Z,3.37
2023-12-11T00:32:27.852Z,5.07
2023-12-11T00:34:54.782Z,4.33
2023-12-11T00:37:21.670Z,2.50
2023-12-11T00:39:49.944Z,3.60
2023-12-11T00:42:16.807Z,5.27
2023-12-11T00:44:43.561Z,4.93
2023-12-11T00:47:10.495Z,5.67
2023-12-11T00:49:37.419Z,3.97
2023-12-11T00:52:05.081Z,3.07
2023-12-11T00:54:31.854Z,5.10
2023-12-11T00:57:00.074Z,3.03
2023-12-11T00:59:26.784Z,4.60
2023-12-11T01:01:53.678Z,1.87
2023-12-11T01:04:20.680Z,4.87
2023-12-11T01:06:47.509Z,2.53
2023-12-11T01:09:14.366Z,2.20
2023-12-11T01:11:41.567Z,5.20
2023-12-11T01:14:09.690Z,2.33
2023-12-11T01:16:36.474Z,2.67
2023-12-11T01:19:03.432Z,6.00
2023-12-11T01:21:30.320Z,7.93
2023-12-11T01:23:58.195Z,6.30
2023-12-11T01:26:26.412Z,7.13
2023-12-11T01:28:53.121Z,4.60
2023-12-11T01:31:21.177Z,5.40
2023-12-11T01:33:48.225Z,4.20
2023-12-11T01:36:15.031Z,7.43
2023-12-11T01:38:41.878Z,4.20
2023-12-11T01:41:08.604Z,7.07
2023-12-11T01:43:35.405Z,4.90
2023-12-11T01:46:10.036Z,3.80
2023-12-11T01:48:38.673Z,6.53
2023-12-11T01:51:08.996Z,6.43
2023-12-11T01:53:35.917Z,14.23
2023-12-11T01:56:03.137Z,5.20
2023-12-11T01:58:31.216Z,5.97
2023-12-11T02:00:58.301Z,4.00
2023-12-11T02:03:25.556Z,3.60
2023-12-11T02:05:53.733Z,5.90
2023-12-11T02:08:20.541Z,7.77
2023-12-11T02:10:47.327Z,8.40
2023-12-11T02:13:15.279Z,6.30
2023-12-11T02:15:43.599Z,7.93
2023-12-11T02:18:12.938Z,6.60
2023-12-11T02:20:40.795Z,5.33
2023-12-11T02:23:15.575Z,7.10
2023-12-11T02:25:46.786Z,9.33
2023-12-11T02:28:15.164Z,3.80
2023-12-11T02:30:50.934Z,8.63
2023-12-11T02:33:18.137Z,5.30
2023-12-11T02:35:44.893Z,10.10
2023-12-11T02:38:11.686Z,5.23
2023-12-11T02:40:38.523Z,4.87
2023-12-11T02:43:05.438Z,5.27
2023-12-11T02:45:33.653Z,6.80
2023-12-11T02:48:00.486Z,6.33
2023-12-11T02:50:27.346Z,4.23
2023-12-11T02:52:54.131Z,4.70
2023-12-11T02:55:20.978Z,7.17
2023-12-11T02:57:47.796Z,7.07
2023-12-11T03:00:14.795Z,22.73
2023-12-11T03:02:43.104Z,7.50
2023-12-11T03:05:09.861Z,8.47
2023-12-11T03:07:38.744Z,5.93
2023-12-11T03:10:06.447Z,10.70
2023-12-11T03:12:33.421Z,7.67
2023-12-11T03:15:00.269Z,13.07
2023-12-11T03:17:27.233Z,11.73
2023-12-11T03:19:56.218Z,6.63
2023-12-11T03:22:23.218Z,10.00
2023-12-11T03:24:50.050Z,13.40
2023-12-11T03:27:17.332Z,5.87
2023-12-11T03:29:44.163Z,9.20
2023-12-11T03:32:10.900Z,6.57
2023-12-11T03:34:37.780Z,11.13
2023-12-11T03:37:06.090Z,10.23
2023-12-11T03:39:33.038Z,4.73
2023-12-11T03:41:59.938Z,6.30
2023-12-11T03:44:26.665Z,13.60
2023-12-11T03:46:53.537Z,14.40
2023-12-11T03:49:20.460Z,10.30
2023-12-11T03:51:47.829Z,13.20
2023-12-11T03:54:17.762Z,10.73
2023-12-11T03:56:44.629Z,14.93
2023-12-11T03:59:11.433Z,4.20
2023-12-11T04:01:38.426Z,14.43
2023-12-11T04:04:06.397Z,9.63
2023-12-11T04:06:34.408Z,6.17
2023-12-11T04:09:01.215Z,8.43
2023-12-11T04:11:29.386Z,6.27
2023-12-11T04:13:56.241Z,6.43
2023-12-11T04:16:23.299Z,12.90
2023-12-11T04:18:52.405Z,7.70
2023-12-11T04:21:19.320Z,6.53
2023-12-11T04:23:46.515Z,7.00
2023-12-11T04:26:14.292Z,10.87
2023-12-11T04:28:42.468Z,15.37
2023-12-11T04:31:09.389Z,10.37
2023-12-11T04:33:36.430Z,9.80
2023-12-11T04:36:05.205Z,9.20
2023-12-11T04:38:31.976Z,13.60
2023-12-11T04:40:58.669Z,6.97
2023-12-11T04:43:27.049Z,9.43
2023-12-11T04:45:56.398Z,15.13
2023-12-11T04:48:23.526Z,9.13
2023-12-11T04:50:50.239Z,5.97
2023-12-11T04:53:17.036Z,13.90
2023-12-11T04:55:44.047Z,7.03
2023-12-11T04:58:10.974Z,11.70
2023-12-11T05:00:37.881Z,11.37
2023-12-11T05:03:06.105Z,8.17
2023-12-11T05:05:33.038Z,7.80
2023-12-11T05:07:59.883Z,5.03
2023-12-11T05:10:26.619Z,11.23
2023-12-11T05:12:53.424Z,12.10
2023-12-11T05:15:20.177Z,6.37
2023-12-11T05:17:46.986Z,8.47
2023-12-11T05:20:15.427Z,15.43
2023-12-11T05:22:42.390Z,7.40
2023-12-11T05:25:09.611Z,11.13
2023-12-11T05:27:36.552Z,13.63
2023-12-11T05:30:03.815Z,15.23
2023-12-11T05:32:30.604Z,8.00
2023-12-11T05:34:57.397Z,9.30
2023-12-11T05:37:25.540Z,9.73
2023-12-11T05:39:58.101Z,10.57
2023-12-11T05:42:39.247Z,12.00
2023-12-11T05:45:07.131Z,11.40
2023-12-11T05:47:34.158Z,12.33
2023-12-11T05:50:01.141Z,10.80
2023-12-11T05:52:29.251Z,12.93
2023-12-11T05:54:56.023Z,9.50
2023-12-11T05:57:22.750Z,20.17
2023-12-11T05:59:49.483Z,14.93
2023-12-11T06:02:16.298Z,12.13
2023-12-11T06:04:44.378Z,17.80
2023-12-11T06:07:12.567Z,17.80
2023-12-11T06:09:40.936Z,10.27
2023-12-11T06:12:08.880Z,9.07
2023-12-11T06:14:35.608Z,12.67
2023-12-11T06:17:02.297Z,9.90
2023-12-11T06:19:29.077Z,15.43
2023-12-11T06:21:55.885Z,8.67
2023-12-11T06:24:22.623Z,10.20
2023-12-11T06:26:50.666Z,4.40
2023-12-11T06:29:17.406Z,9.63
2023-12-11T06:31:44.148Z,9.27
2023-12-11T06:34:11.087Z,8.10
2023-12-11T06:36:37.953Z,6.17
2023-12-11T06:39:04.675Z,12.97
2023-12-11T06:41:31.559Z,10.27
2023-12-11T06:43:59.737Z,9.00
2023-12-11T06:46:26.556Z,7.87
2023-12-11T06:48:53.470Z,10.03
2023-12-11T06:51:20.382Z,13.60
2023-12-11T06:53:47.125Z,7.93
2023-12-11T06:56:17.872Z,10.10
2023-12-11T06:58:44.625Z,8.57
2023-12-11T07:01:13.320Z,10.03
2023-12-11T07:03:40.408Z,8.23
2023-12-11T07:06:07.939Z,14.00
2023-12-11T07:08:35.791Z,11.53
2023-12-11T07:11:02.612Z,10.63
2023-12-11T07:13:31.047Z,8.93
2023-12-11T07:16:00.760Z,6.47
2023-12-11T07:18:28.921Z,6.70
2023-12-11T07:20:55.798Z,8.00
2023-12-11T07:23:27.505Z,8.27
2023-12-11T07:25:54.590Z,9.60
2023-12-11T07:28:24.291Z,9.63
2023-12-11T07:30:51.103Z,11.33
2023-12-11T07:33:17.910Z,8.63
2023-12-11T07:35:46.098Z,13.30
2023-12-11T07:38:13.175Z,9.23
2023-12-11T07:40:39.924Z,10.67
2023-12-11T07:43:06.669Z,9.27
2023-12-11T07:46:08.806Z,9.77
2023-12-11T07:52:04.290Z,11.03
2023-12-11T07:57:34.250Z,6.03
2023-12-11T08:00:05.764Z,12.50
2023-12-11T08:02:45.781Z,14.27
2023-12-11T08:08:30.170Z,12.00
2023-12-11T08:11:20.721Z,9.83
2023-12-11T08:13:56.232Z,11.50
2023-12-11T08:16:26.086Z,10.60
2023-12-11T08:18:53.277Z,10.23
2023-12-11T08:21:22.701Z,12.80
2023-12-11T08:23:50.980Z,10.63
2023-12-11T08:26:20.621Z,16.93
2023-12-11T08:28:48.529Z,11.33
2023-12-11T08:31:18.516Z,10.60
2023-12-11T08:33:45.760Z,14.73
2023-12-11T08:36:15.291Z,11.40
2023-12-11T08:38:42.230Z,8.10
2023-12-11T08:41:10.617Z,9.83
2023-12-11T08:43:37.479Z,12.70
2023-12-11T08:46:04.792Z,10.97
2023-12-11T08:48:31.870Z,7.13
2023-12-11T08:50:58.758Z,4.57
2023-12-11T08:53:28.087Z,9.93
2023-12-11T08:55:57.264Z,5.33
2023-12-11T08:58:28.102Z,2.77
2023-12-11T09:00:55.180Z,15.00
2023-12-11T09:03:22.238Z,9.67
2023-12-11T09:05:52.899Z,9.73
2023-12-11T09:08:21.172Z,4.87
2023-12-11T09:10:48.141Z,7.40
2023-12-11T09:13:14.981Z,4.53
2023-12-11T09:15:43.440Z,9.83
2023-12-11T09:18:15.684Z,3.27
2023-12-11T09:20:42.925Z,3.93
2023-12-11T09:23:09.798Z,8.27
2023-12-11T09:25:37.038Z,3.33
2023-12-11T09:28:04.518Z,5.90
2023-12-11T09:30:31.593Z,6.03
2023-12-11T09:33:03.362Z,4.73
2023-12-11T09:35:30.537Z,9.90
2023-12-11T09:37:57.519Z,9.57
2023-12-11T09:40:24.383Z,6.13
2023-12-11T09:42:52.384Z,7.13
2023-12-11T09:45:20.737Z,7.73
2023-12-11T09:48:00.152Z,2.60
2023-12-11T09:50:38.230Z,7.60
2023-12-11T09:53:05.032Z,6.17
2023-12-11T09:55:31.827Z,6.90
2023-12-11T09:58:27.754Z,5.47
2023-12-11T10:00:57.763Z,3.20
2023-12-11T10:03:48.219Z,3.03
2023-12-11T10:16:53.722Z,5.43
2023-12-11T10:19:57.677Z,8.83
2023-12-11T10:22:53.151Z,6.20
2023-12-11T10:28:29.186Z,4.20
2023-12-11T10:31:25.476Z,4.10
2023-12-11T10:34:07.441Z,5.47
2023-12-11T10:37:00.539Z,6.93
2023-12-11T10:40:03.072Z,8.20
2023-12-11T10:45:48.977Z,5.83
2023-12-11T10:48:34.179Z,3.50
2023-12-11T10:51:08.243Z,3.20
2023-12-11T10:53:40.111Z,6.43
2023-12-11T10:56:18.688Z,3.73
2023-12-11T10:58:48.309Z,4.17
2023-12-11T11:01:16.268Z,5.67
2023-12-11T11:03:52.311Z,4.40
2023-12-11T11:09:42.201Z,2.80
2023-12-11T11:15:32.584Z,2.30
2023-12-11T11:20:41.238Z,2.87
2023-12-11T11:23:24.688Z,5.40
2023-12-11T11:25:51.911Z,5.23
2023-12-11T11:28:37.497Z,6.73
2023-12-11T11:31:15.243Z,4.83
2023-12-11T11:33:48.303Z,5.20
2023-12-11T11:36:18.017Z,4.13
2023-12-11T11:38:58.216Z,5.00
2023-12-11T11:41:29.546Z,4.57
2023-12-11T11:44:06.811Z,4.73
2023-12-11T11:46:53.656Z,4.90
2023-12-11T11:49:28.620Z,2.73
2023-12-11T11:51:55.957Z,4.53
2023-12-11T11:54:23.881Z,3.60
2023-12-11T11:56:50.668Z,4.23
2023-12-11T11:59:17.616Z,4.37
2023-12-11T12:01:53.252Z,4.37
2023-12-11T12:04:30.839Z,2.87
2023-12-11T12:06:59.190Z,4.80
2023-12-11T12:09:26.236Z,6.30
2023-12-11T12:11:54.727Z,2.50
2023-12-11T12:14:25.202Z,4.53
2023-12-11T12:16:55.735Z,5.07
2023-12-11T12:19:30.628Z,5.77
2023-12-11T12:22:02.387Z,8.77
2023-12-11T12:24:32.403Z,6.17
2023-12-11T12:27:08.248Z,4.40
2023-12-11T12:29:35.905Z,4.23
2023-12-11T12:32:08.425Z,2.83
2023-12-11T12:34:40.280Z,4.63
2023-12-11T12:37:07.922Z,3.43
2023-12-11T12:39:35.257Z,5.57
2023-12-11T12:42:02.118Z,4.70
2023-12-11T12:44:28.928Z,6.20
2023-12-11T12:47:00.905Z,8.17
2023-12-11T12:49:32.141Z,5.70
2023-12-11T12:51:58.980Z,5.27
2023-12-11T12:54:26.182Z,5.67
2023-12-11T12:57:01.971Z,5.73
2023-12-11T12:59:29.185Z,2.87
2023-12-11T13:01:56.015Z,6.37
2023-12-11T13:04:24.027Z,5.60
2023-12-11T13:06:52.409Z,2.60
2023-12-11T13:09:29.418Z,4.03
2023-12-11T13:11:56.504Z,3.03
2023-12-11T13:14:23.260Z,5.47
2023-12-11T13:16:50.004Z,4.10
2023-12-11T13:19:16.907Z,2.00
2023-12-11T13:21:43.856Z,2.70
2023-12-11T13:24:12.023Z,3.20
2023-12-11T13:26:39.160Z,3.33
2023-12-11T13:29:05.914Z,2.50
2023-12-11T13:31:32.796Z,4.43
2023-12-11T13:33:59.631Z,7.30
2023-12-11T13:36:26.463Z,3.30
2023-12-11T13:38:53.178Z,3.43
2023-12-11T13:41:21.309Z,1.50
2023-12-11T13:43:48.078Z,2.93
2023-12-11T13:46:14.888Z,1.40
2023-12-11T13:48:41.797Z,3.77
2023-12-11T13:51:08.632Z,2.23
2023-12-11T13:53:37.590Z,2.97
2023-12-11T13:56:08.458Z,0.80
2023-12-11T13:58:36.626Z,3.17
2023-12-11T14:01:04.682Z,5.43
2023-12-11T14:03:31.642Z,1.90
2023-12-11T14:05:58.494Z,1.40
2023-12-11T14:08:25.268Z,3.23
2023-12-11T14:10:53.920Z,5.27
2023-12-11T14:13:20.778Z,3.30
2023-12-11T14:16:00.743Z,2.53
2023-12-11T14:18:41.207Z,2.33
2023-12-11T14:24:21.401Z,1.97
2023-12-11T14:29:29.406Z,0.77
2023-12-11T14:32:05.254Z,1.60
2023-12-11T14:34:51.002Z,1.30
2023-12-11T14:37:23.632Z,1.13
2023-12-11T14:40:20.858Z,2.53
2023-12-11T14:42:50.012Z,2.37
2023-12-11T14:45:34.220Z,4.57
2023-12-11T14:48:17.635Z,1.47
2023-12-11T14:50:50.910Z,2.40
2023-12-11T14:53:21.004Z,1.60
2023-12-11T14:55:50.523Z,2.60
2023-12-11T14:58:18.876Z,1.07
2023-12-11T15:00:50.648Z,1.47
2023-12-11T15:03:20.262Z,1.27
2023-12-11T15:05:50.197Z,1.20
2023-12-11T15:08:17.292Z,3.90
2023-12-11T15:10:46.329Z,1.53
2023-12-11T15:13:16.468Z,3.10
2023-12-11T15:15:43.755Z,1.20
2023-12-11T15:18:10.580Z,1.30
2023-12-11T15:20:38.952Z,5.83
2023-12-11T15:23:05.799Z,1.60
2023-12-11T15:25:32.967Z,0.80
2023-12-11T15:27:59.870Z,7.63
2023-12-11T15:30:26.557Z,3.30
2023-12-11T15:32:53.397Z,2.10
2023-12-11T15:35:20.299Z,2.57
2023-12-11T15:37:53.542Z,1.27
2023-12-11T15:40:20.415Z,0.87
2023-12-11T15:42:47.163Z,2.80
2023-12-11T15:45:13.945Z,1.70
2023-12-11T15:48:00.297Z,2.70
2023-12-11T15:50:28.014Z,1.80
2023-12-11T15:52:56.146Z,3.27
2023-12-11T15:55:23.041Z,1.50
2023-12-11T15:57:49.902Z,2.10
2023-12-11T16:00:17.178Z,1.70
2023-12-11T16:02:43.913Z,1.63
2023-12-11T16:05:10.753Z,2.13
2023-12-11T16:07:37.813Z,0.70
2023-12-11T16:10:07.252Z,1.13
2023-12-11T16:12:34.069Z,2.53
2023-12-11T16:15:00.905Z,1.50
2023-12-11T16:17:27.713Z,3.00
2023-12-11T16:19:54.839Z,4.63
2023-12-11T16:22:22.746Z,10.50
2023-12-11T16:24:49.653Z,4.03
2023-12-11T16:27:17.795Z,3.27
2023-12-11T16:29:44.480Z,6.40
2023-12-11T16:32:11.226Z,4.60
2023-12-11T16:34:38.104Z,5.97
2023-12-11T16:37:05.548Z,3.30
2023-12-11T16:39:32.271Z,2.37
2023-12-11T16:41:59.032Z,4.50
2023-12-11T16:44:27.182Z,2.50
2023-12-11T16:46:53.892Z,8.33
2023-12-11T16:49:20.643Z,2.90
2023-12-11T16:51:47.440Z,7.50
2023-12-11T16:54:14.247Z,5.70
2023-12-11T16:56:41.002Z,10.10
2023-12-11T16:59:07.918Z,10.70
2023-12-11T17:01:36.051Z,8.70
2023-12-11T17:04:02.887Z,6.13
2023-12-11T17:06:31.090Z,10.10
2023-12-11T17:08:58.947Z,5.53
2023-12-11T17:11:25.655Z,7.27
2023-12-11T17:13:52.374Z,9.60
2023-12-11T17:16:19.152Z,4.80
2023-12-11T17:18:47.451Z,3.80
2023-12-11T17:21:22.183Z,6.97
2023-12-11T17:23:52.590Z,2.30
2023-12-11T17:26:19.483Z,9.43
2023-12-11T17:28:46.157Z,3.70
2023-12-11T17:31:12.937Z,11.23
2023-12-11T17:33:39.731Z,12.37
2023-12-11T17:36:08.998Z,4.90
2023-12-11T17:38:36.088Z,2.40
2023-12-11T17:41:02.906Z,6.20
2023-12-11T17:43:29.678Z,12.73
2023-12-11T17:45:56.452Z,3.30
2023-12-11T17:48:23.229Z,8.93
2023-12-11T17:50:49.960Z,7.07
2023-12-11T17:53:19.224Z,6.17
2023-12-11T17:55:45.917Z,2.43
2023-12-11T17:58:12.734Z,8.80
2023-12-11T18:00:39.669Z,7.80
2023-12-11T18:03:06.456Z,5.67
2023-12-11T18:05:33.161Z,4.00
2023-12-11T18:07:59.855Z,5.27
2023-12-11T18:10:28.164Z,3.30
2023-12-11T18:12:54.867Z,4.10
2023-12-11T18:15:21.877Z,2.50
2023-12-11T18:17:52.429Z,3.60
2023-12-11T18:20:23.761Z,2.50
2023-12-11T18:22:50.458Z,1.37
2023-12-11T18:25:17.324Z,4.17
2023-12-11T18:27:45.514Z,1.83
2023-12-11T18:30:13.279Z,1.73
2023-12-11T18:32:40.098Z,2.87
2023-12-11T18:35:07.228Z,2.50
2023-12-11T18:37:34.262Z,3.13
2023-12-11T18:40:01.534Z,3.33
2023-12-11T18:42:28.315Z,5.03
2023-12-11T18:44:58.652Z,5.33
2023-12-11T18:47:25.375Z,2.10
2023-12-11T18:49:52.187Z,3.87
2023-12-11T18:52:19.003Z,3.57
2023-12-11T18:54:45.823Z,3.03
2023-12-11T18:57:15.726Z,5.10
2023-12-11T18:59:42.512Z,2.53
2023-12-11T19:02:10.750Z,3.73
2023-12-11T19:04:37.746Z,4.33
2023-12-11T19:07:04.912Z,2.57
2023-12-11T19:09:31.664Z,3.00
2023-12-11T19:11:58.578Z,2.97
2023-12-11T19:14:25.292Z,2.07
2023-12-11T19:16:51.995Z,1.00
2023-12-11T19:19:25.958Z,2.23
2023-12-11T19:21:52.977Z,1.30
2023-12-11T19:24:19.737Z,3.23
2023-12-11T19:26:46.669Z,3.33
2023-12-11T19:29:13.482Z,1.90
2023-12-11T19:31:45.041Z,2.57
2023-12-11T19:34:12.195Z,2.13
2023-12-11T19:36:41.515Z,2.33
2023-12-11T19:39:08.269Z,2.77
2023-12-11T19:41:35.062Z,1.50
2023-12-11T19:44:01.839Z,1.30
2023-12-11T19:46:28.772Z,2.27
2023-12-11T19:48:55.789Z,2.33
2023-12-11T19:51:22.713Z,5.50
2023-12-11T19:53:50.781Z,1.33
2023-12-11T19:56:21.272Z,3.83
2023-12-11T19:58:48.158Z,5.47
2023-12-11T20:01:15.346Z,2.20
2023-12-11T20:03:43.100Z,3.80
2023-12-11T20:06:10.040Z,2.17
2023-12-11T20:08:36.872Z,2.30
2023-12-11T20:11:05.437Z,4.63
2023-12-11T20:13:32.302Z,3.03
2023-12-11T20:15:59.033Z,2.27
2023-12-11T20:18:25.925Z,3.63
2023-12-11T20:20:52.686Z,3.80
2023-12-11T20:23:19.378Z,2.20
2023-12-11T20:25:46.238Z,3.43
2023-12-11T20:28:14.425Z,3.53
2023-12-11T20:30:41.256Z,3.50
2023-12-11T20:33:08.052Z,12.00
2023-12-11T20:35:34.930Z,2.00
2023-12-11T20:38:01.752Z,2.27
2023-12-11T20:40:28.756Z,4.63
2023-12-11T20:42:55.542Z,4.37
2023-12-11T20:45:23.718Z,3.83
2023-12-11T20:47:50.568Z,5.90
2023-12-11T20:50:17.322Z,1.23
2023-12-11T20:52:44.061Z,6.23
2023-12-11T20:55:10.997Z,2.03
2023-12-11T20:57:37.789Z,1.50
2023-12-11T21:00:08.366Z,1.13
2023-12-11T21:02:36.458Z,2.30
2023-12-11T21:05:03.470Z,1.33
2023-12-11T21:07:30.514Z,2.10
2023-12-11T21:09:57.400Z,2.47
2023-12-11T21:12:24.129Z,2.50
2023-12-11T21:14:50.827Z,1.20
2023-12-11T21:17:17.655Z,2.57
2023-12-11T21:19:45.738Z,4.00
2023-12-11T21:22:12.497Z,1.07
2023-12-11T21:24:39.355Z,4.13
2023-12-11T21:27:06.109Z,2.60
2023-12-11T21:29:32.817Z,6.33
2023-12-11T21:31:59.564Z,2.93
2023-12-11T21:34:26.414Z,7.07
2023-12-11T21:36:54.507Z,2.93
2023-12-11T21:39:21.275Z,3.80
2023-12-11T21:41:48.098Z,6.27
2023-12-11T21:44:14.974Z,2.27
2023-12-11T21:46:41.793Z,4.97
2023-12-11T21:49:08.735Z,2.70
2023-12-11T21:51:35.615Z,2.43
2023-12-11T21:54:03.766Z,3.23
2023-12-11T21:56:30.435Z,0.93
2023-12-11T21:58:57.158Z,2.93
2023-12-11T22:01:23.988Z,3.60
2023-12-11T22:03:50.938Z,1.53
2023-12-11T22:06:17.694Z,5.40
2023-12-11T22:08:44.554Z,2.57
2023-12-11T22:11:15.091Z,1.07
2023-12-11T22:13:42.664Z,2.40
2023-12-11T22:16:10.086Z,7.20
2023-12-11T22:18:36.978Z,3.90
2023-12-11T22:21:03.809Z,3.10
2023-12-11T22:23:30.573Z,3.17
2023-12-11T22:25:57.781Z,2.70
2023-12-11T22:28:26.075Z,3.53
2023-12-11T22:30:52.783Z,1.23
2023-12-11T22:33:19.511Z,3.13
2023-12-11T22:35:46.198Z,2.63
2023-12-11T22:38:13.407Z,1.53
2023-12-11T22:40:40.239Z,6.07
2023-12-11T22:43:07.206Z,1.60
2023-12-11T22:45:35.505Z,6.67
2023-12-11T22:48:02.371Z,3.93
2023-12-11T22:50:31.521Z,2.60
2023-12-11T22:52:58.754Z,2.03
2023-12-11T22:55:25.470Z,3.53
2023-12-11T22:57:59.010Z,2.43
2023-12-11T23:00:32.861Z,2.30
2023-12-11T23:03:00.863Z,7.20
2023-12-11T23:05:27.706Z,3.07
2023-12-11T23:07:54.547Z,2.60
2023-12-11T23:10:23.084Z,1.80
2023-12-11T23:12:50.411Z,5.30
2023-12-11T23:15:17.356Z,3.07
2023-12-11T23:17:44.065Z,0.97
2023-12-11T23:20:12.963Z,1.50
2023-12-11T23:22:39.680Z,3.33
2023-12-11T23:25:07.339Z,2.27
2023-12-11T23:27:34.324Z,3.07
2023-12-11T23:30:07.135Z,2.93
2023-12-11T23:32:35.077Z,3.80
2023-12-11T23:35:02.041Z,4.60
2023-12-11T23:37:31.433Z,3.57
2023-12-11T23:39:58.500Z,3.27
2023-12-11T23:42:25.210Z,2.30
2023-12-11T23:44:51.992Z,1.33
2023-12-11T23:47:18.776Z,3.90
2023-12-11T23:49:45.869Z,2.37
2023-12-11T23:52:12.755Z,3.20
2023-12-11T23:54:40.787Z,3.43
2023-12-11T23:57:07.495Z,1.70
2023-12-11T23:59:34.307Z,3.87
